Abbeville, Mississippi
Current Conditions -  °F | °C
As of 12:15 AM on Monday 22 Dec 2014 (Local Time) from KUOX Reporting Station
Haze Haze  
Wind Chill: 37°   Ceiling: 100
Heat Index: 43°   Visibility: 1.2mi
Dew Point: 41°   Wind: 9mph
Humidity: 93%   Direction: 150°SSE
Pressure: 29.95"   Gusts: NA
Location:  34.5°N, 89.5°W
Report Text: KUOX 220615Z AUTO 15008KT 1 1/4SM BR OVC001 06/05 A2995 RMK AO2 PWINO PNO
Loading
Personal Weather Stations






























Interactive Weather Map New forecast layout! Learn more

10-Day Weather Forecast

Advertisements
Track Severe Weather on mobile